createdAt,value
2022-12-17T00:02:23.853Z,11.70
2022-12-17T00:08:27.243Z,11.30
2022-12-17T00:11:25.104Z,14.40
2022-12-17T00:14:16.169Z,12.68
2022-12-17T00:17:07.300Z,12.52
2022-12-17T00:20:07.293Z,12.77
2022-12-17T00:23:09.603Z,12.05
2022-12-17T00:26:03.076Z,12.43
2022-12-17T00:28:49.303Z,14.20
2022-12-17T00:31:37.861Z,15.20
2022-12-17T00:34:24.260Z,14.98
2022-12-17T00:47:37.530Z,14.37
2022-12-17T00:50:46.171Z,16.15
2022-12-17T00:54:09.950Z,17.55
2022-12-17T00:57:26.838Z,17.58
2022-12-17T01:00:43.968Z,19.92
2022-12-17T01:03:40.982Z,19.35
2022-12-17T01:06:43.494Z,16.30
2022-12-17T01:09:34.143Z,17.85
2022-12-17T01:12:25.181Z,19.00
2022-12-17T01:15:11.616Z,22.85
2022-12-17T01:17:59.330Z,21.38
2022-12-17T01:20:46.961Z,16.02
2022-12-17T01:23:36.360Z,15.40
2022-12-17T01:26:24.179Z,14.80
2022-12-17T01:29:12.362Z,15.20
2022-12-17T01:35:19.788Z,14.52
2022-12-17T01:38:29.657Z,14.98
2022-12-17T01:44:38.503Z,12.85
2022-12-17T01:47:36.149Z,13.70
2022-12-17T01:50:37.007Z,15.68
2022-12-17T01:54:22.292Z,15.55
2022-12-17T01:57:31.820Z,14.25
2022-12-17T02:00:19.489Z,14.05
2022-12-17T02:03:05.899Z,13.98
2022-12-17T02:12:45.237Z,14.63
2022-12-17T02:15:38.731Z,15.35
2022-12-17T02:18:44.340Z,10.15
2022-12-17T02:22:01.764Z,14.15
2022-12-17T02:25:03.630Z,14.50
2022-12-17T02:31:04.242Z,13.90
2022-12-17T02:33:59.103Z,12.68
2022-12-17T02:36:48.015Z,12.57
2022-12-17T02:39:34.213Z,12.68
2022-12-17T02:42:21.326Z,12.82
2022-12-17T02:45:18.341Z,13.57
2022-12-17T02:48:16.881Z,12.70
2022-12-17T02:51:10.599Z,12.05
2022-12-17T02:54:37.653Z,12.52
2022-12-17T03:00:37.999Z,14.27
2022-12-17T03:03:59.309Z,17.70
2022-12-17T03:10:23.346Z,13.95
2022-12-17T03:23:44.712Z,13.82
2022-12-17T03:26:43.913Z,12.77
2022-12-17T03:33:03.649Z,11.40
2022-12-17T03:36:00.954Z,12.93
2022-12-17T03:45:54.514Z,12.85
2022-12-17T03:52:20.413Z,11.70
2022-12-17T04:09:12.782Z,11.93
2022-12-17T04:22:37.775Z,12.68
2022-12-17T04:56:52.752Z,11.73
2022-12-17T05:06:18.759Z,11.85
2022-12-17T05:08:08.626Z,10.98
2022-12-17T05:12:34.826Z,10.68
2022-12-17T05:17:41.040Z,11.30
2022-12-17T05:20:32.635Z,13.63
2022-12-17T05:23:29.122Z,12.93
2022-12-17T05:26:23.631Z,12.98
2022-12-17T05:29:15.414Z,11.38
2022-12-17T05:32:02.097Z,10.90
2022-12-17T05:34:51.247Z,13.15
2022-12-17T05:37:38.666Z,11.85
2022-12-17T05:40:30.262Z,11.23
2022-12-17T05:43:35.161Z,13.00
2022-12-17T05:46:24.216Z,13.30
2022-12-17T05:49:15.447Z,13.02
2022-12-17T05:52:06.250Z,14.40
2022-12-17T05:54:54.480Z,12.88
2022-12-17T05:57:57.508Z,14.73
2022-12-17T06:04:03.433Z,15.85
2022-12-17T06:06:57.980Z,13.38
2022-12-17T06:09:56.889Z,14.77
2022-12-17T06:12:52.159Z,14.73
2022-12-17T06:15:41.591Z,14.57
2022-12-17T06:18:29.532Z,15.30
2022-12-17T06:21:18.637Z,14.45
2022-12-17T06:24:04.969Z,14.07
2022-12-17T06:26:53.010Z,13.48
2022-12-17T06:29:39.087Z,13.25
2022-12-17T06:32:25.253Z,13.48
2022-12-17T06:35:12.762Z,13.07
2022-12-17T06:38:27.412Z,12.57
2022-12-17T06:41:21.092Z,12.60
2022-12-17T06:44:22.766Z,11.88
2022-12-17T06:47:12.361Z,13.25
2022-12-17T06:50:07.945Z,13.15
2022-12-17T06:53:11.745Z,14.60
2022-12-17T06:56:20.952Z,14.55
2022-12-17T06:59:22.674Z,15.73
2022-12-17T07:02:11.134Z,15.70
2022-12-17T07:04:58.869Z,15.32
2022-12-17T07:07:52.422Z,15.93
2022-12-17T07:10:41.661Z,16.77
2022-12-17T07:13:41.145Z,16.25
2022-12-17T07:16:33.138Z,17.17
2022-12-17T07:19:26.771Z,14.32
2022-12-17T07:25:25.885Z,14.40
2022-12-17T07:28:18.795Z,17.63
2022-12-17T07:31:20.939Z,15.13
2022-12-17T07:34:08.885Z,17.60
2022-12-17T07:37:02.237Z,23.27
2022-12-17T07:39:58.831Z,22.63
2022-12-17T07:42:57.047Z,21.35
2022-12-17T07:45:54.726Z,20.88
2022-12-17T07:49:35.699Z,21.90
2022-12-17T07:52:45.204Z,22.35
2022-12-17T07:55:47.812Z,20.77
2022-12-17T07:58:40.337Z,16.90
2022-12-17T08:01:45.698Z,17.92
2022-12-17T08:11:27.980Z,21.00
2022-12-17T08:17:14.684Z,19.45
2022-12-17T08:20:14.397Z,22.83
2022-12-17T08:23:02.930Z,19.75
2022-12-17T08:26:00.686Z,23.50
2022-12-17T08:28:51.158Z,21.13
2022-12-17T08:31:43.645Z,19.92
2022-12-17T08:34:35.464Z,20.15
2022-12-17T08:37:23.310Z,18.90
2022-12-17T08:40:13.814Z,18.13
2022-12-17T08:43:18.958Z,16.75
2022-12-17T08:50:00.457Z,21.25
2022-12-17T08:52:43.820Z,21.17
2022-12-17T08:55:34.906Z,22.45
2022-12-17T08:58:27.643Z,23.90
2022-12-17T09:01:18.961Z,24.42
2022-12-17T09:08:15.039Z,23.88
2022-12-17T09:10:44.037Z,25.00
2022-12-17T09:14:17.005Z,25.00
2022-12-17T09:17:16.777Z,44.65
2022-12-17T09:20:11.663Z,26.10
2022-12-17T09:23:11.728Z,21.92
2022-12-17T09:25:59.391Z,17.35
2022-12-17T09:29:05.228Z,16.85
2022-12-17T09:31:49.993Z,19.20
2022-12-17T09:34:47.562Z,17.67
2022-12-17T09:37:36.515Z,21.77
2022-12-17T09:40:24.864Z,16.77
2022-12-17T09:43:18.117Z,17.15
2022-12-17T09:46:08.177Z,16.65
2022-12-17T09:48:57.970Z,18.10
2022-12-17T09:51:47.550Z,17.75
2022-12-17T09:54:41.113Z,16.02
2022-12-17T09:57:36.984Z,12.20
2022-12-17T10:00:26.251Z,16.05
2022-12-17T10:03:24.116Z,17.17
2022-12-17T10:06:10.069Z,18.35
2022-12-17T10:08:58.825Z,17.17
2022-12-17T10:11:46.807Z,17.15
2022-12-17T10:14:35.681Z,18.40
2022-12-17T10:17:22.043Z,17.02
2022-12-17T10:20:08.770Z,18.05
2022-12-17T10:23:01.984Z,17.73
2022-12-17T10:25:50.079Z,17.63
2022-12-17T10:28:40.683Z,18.30
2022-12-17T10:31:32.032Z,16.58
2022-12-17T10:34:19.277Z,17.50
2022-12-17T10:37:17.387Z,18.02
2022-12-17T11:42:45.617Z,17.40
2022-12-17T11:45:40.913Z,16.90
2022-12-17T11:48:36.133Z,15.25
2022-12-17T11:51:26.782Z,16.00
2022-12-17T11:54:26.550Z,16.05
2022-12-17T11:57:18.749Z,17.83
2022-12-17T12:00:08.498Z,17.20
2022-12-17T12:03:04.646Z,17.35
2022-12-17T12:05:57.703Z,16.65
2022-12-17T12:08:47.313Z,15.40
2022-12-17T12:11:38.703Z,17.27
2022-12-17T12:14:28.784Z,16.92
2022-12-17T12:17:21.683Z,16.92
2022-12-17T12:20:21.632Z,17.13
2022-12-17T12:23:17.576Z,16.65
2022-12-17T12:26:17.285Z,17.13
2022-12-17T12:29:08.358Z,17.75
2022-12-17T12:31:56.838Z,17.05
2022-12-17T12:34:55.290Z,16.58
2022-12-17T12:37:56.079Z,16.73
2022-12-17T12:40:51.972Z,16.17
2022-12-17T12:43:43.499Z,17.85
2022-12-17T12:46:42.403Z,16.15
2022-12-17T12:49:41.553Z,17.48
2022-12-17T12:52:59.788Z,16.40
2022-12-17T12:56:08.149Z,17.10
2022-12-17T12:59:02.456Z,17.45
2022-12-17T13:04:50.518Z,16.25
2022-12-17T13:07:31.992Z,18.45
2022-12-17T13:10:14.228Z,17.50
2022-12-17T13:12:53.765Z,17.70
2022-12-17T13:15:41.769Z,16.58
2022-12-17T13:18:25.320Z,16.75
2022-12-17T13:21:07.577Z,17.45
2022-12-17T13:23:56.976Z,17.15
2022-12-17T13:29:39.476Z,17.05
2022-12-17T13:32:30.887Z,16.95
2022-12-17T13:35:19.096Z,17.08
2022-12-17T13:38:14.940Z,17.85
2022-12-17T13:41:10.916Z,17.40
2022-12-17T13:44:13.907Z,17.35
2022-12-17T13:50:34.239Z,17.90
2022-12-17T13:52:59.582Z,17.50
2022-12-17T13:55:30.906Z,17.05
2022-12-17T13:58:39.120Z,17.20
2022-12-17T14:04:11.553Z,18.15
2022-12-17T14:06:48.007Z,17.60
2022-12-17T14:09:24.044Z,17.42
2022-12-17T14:12:12.509Z,17.48
2022-12-17T14:14:49.146Z,17.92
2022-12-17T14:17:27.093Z,17.80
2022-12-17T14:20:06.988Z,18.83
2022-12-17T14:22:51.125Z,18.23
2022-12-17T14:25:28.349Z,18.42
2022-12-17T14:28:08.423Z,19.58
2022-12-17T14:31:24.257Z,19.30
2022-12-17T14:33:40.375Z,17.98
2022-12-17T14:36:17.460Z,18.83
2022-12-17T14:38:55.684Z,18.77
2022-12-17T14:41:47.028Z,18.20
2022-12-17T14:44:21.667Z,18.00
2022-12-17T14:46:58.849Z,19.05
2022-12-17T14:49:29.680Z,18.50
2022-12-17T14:52:05.123Z,18.35
2022-12-17T14:54:35.883Z,18.90
2022-12-17T14:57:10.158Z,18.05
2022-12-17T14:59:44.021Z,16.45
2022-12-17T15:02:25.692Z,17.98
2022-12-17T15:04:58.446Z,17.52
2022-12-17T15:07:35.573Z,17.70
2022-12-17T15:10:21.674Z,16.50
2022-12-17T15:12:54.751Z,19.15
2022-12-17T15:15:31.954Z,21.35
2022-12-17T15:18:06.644Z,23.05
2022-12-17T15:20:37.745Z,21.70
2022-12-17T15:23:23.508Z,21.25
2022-12-17T15:26:29.241Z,20.17
2022-12-17T15:29:05.549Z,24.73
2022-12-17T15:31:39.205Z,27.05
2022-12-17T15:39:40.788Z,23.02
2022-12-17T15:45:19.862Z,21.10
2022-12-17T15:48:11.993Z,22.20
2022-12-17T15:51:15.120Z,25.05
2022-12-17T15:53:55.972Z,26.95
2022-12-17T15:56:35.235Z,21.98
2022-12-17T15:59:09.491Z,18.60
2022-12-17T16:01:46.030Z,19.10
2022-12-17T16:04:36.787Z,19.75
2022-12-17T16:07:05.625Z,19.10
2022-12-17T16:09:39.384Z,17.77
2022-12-17T16:12:10.187Z,18.13
2022-12-17T16:14:48.884Z,18.40
2022-12-17T16:17:45.574Z,18.33
2022-12-17T18:03:54.266Z,19.05
2022-12-17T18:07:24.205Z,20.42
2022-12-17T18:10:05.356Z,18.98
2022-12-17T18:16:40.353Z,22.70
2022-12-17T18:19:17.941Z,22.02
2022-12-17T18:22:24.030Z,21.65
